Terminal Aerodrome Forecast
Issued by NWS Knoxville/Tri Cities, TN

Home | Current Version | Previous Version | Text Only | Print | Product List | Glossary On
Versions: 1 2 3 4 5 6 7 8 9 10 11 12 13 14 15 16 17 18 19 20 21 22 23 24 25 26 27 28 29 30 31 32 33 34 35
000
FTUS44 KMRX 262320
TAFTRI
TAF
KTRI 262320Z 2700/2724 VRB03KT P6SM SCT060 BKN120
     FM270800 VRB03KT P6SM -RA BKN040 OVC100
     FM270930 26005KT 4SM -RASN BKN025 OVC050
     FM271400 28010G17KT P6SM BKN035=

USA.gov is the U.S. government's official web portal to all federal, state and local government web resources and services.